Earl, North Carolina
Current Conditions -  °F | °C
As of 4:55 PM on Saturday 25 Oct 2014 (Local Time) from KEHO Reporting Station
Clear Clear  
Wind Chill: 73°   Ceiling: Unl
Heat Index: 73°   Visibility: 10mi
Dew Point: 36°   Wind: 5mph
Humidity: 27%   Direction: 230°SW
Pressure: 29.95"   Gusts: NA
Location:  35.19°N, 81.53°W
Report Text: KEHO 252055Z AUTO 23004KT 10SM CLR 23/02 A2995 RMK AO2 T02250024
Loading
Personal Weather Stations






























Interactive Weather Map
Tropical Storm Tracking
New forecast layout! Learn more

10-Day Weather Forecast

Advertisements
Track Severe Weather on mobile